Fryburg, Pennsylvania
Current Conditions -  °F | °C
As of 10:55 PM on Tuesday 25 Nov 2014 (Local Time) from KFKL Reporting Station
Broken Clouds Broken Clouds  
Wind Chill: 26°   Ceiling: 2700
Heat Index: 32°   Visibility: 10mi
Dew Point: 23°   Wind: 6mph
Humidity: 69%   Direction: 310°NW
Pressure: 30.16"   Gusts: NA
Location:  41.35°N, 79.44°W
Report Text: KFKL 260355Z AUTO 31005KT 10SM BKN027 00/M05 A3016 RMK AO1
Loading
Personal Weather Stations






























Interactive Weather Map New forecast layout! Learn more

10-Day Weather Forecast

Advertisements
Track Severe Weather on mobile